sensor_id;sensor_type;location;lat;lon;timestamp;P1;durP1;ratioP1;P2;durP2;ratioP2
9449;SDS011;4763;48.370;10.874;2023-07-08T00:01:56;7.43;;;4.57;;
9449;SDS011;4763;48.370;10.874;2023-07-08T00:04:23;7.90;;;4.73;;
9449;SDS011;4763;48.370;10.874;2023-07-08T00:06:50;10.50;;;4.63;;
9449;SDS011;4763;48.370;10.874;2023-07-08T00:09:17;7.43;;;4.73;;
9449;SDS011;4763;48.370;10.874;2023-07-08T00:11:44;7.27;;;4.77;;
9449;SDS011;4763;48.370;10.874;2023-07-08T00:14:12;10.67;;;4.73;;
9449;SDS011;4763;48.370;10.874;2023-07-08T00:16:39;7.30;;;4.80;;
9449;SDS011;4763;48.370;10.874;2023-07-08T00:19:07;6.70;;;4.70;;
9449;SDS011;4763;48.370;10.874;2023-07-08T00:21:35;8.03;;;4.67;;
9449;SDS011;4763;48.370;10.874;2023-07-08T00:24:02;7.83;;;5.03;;
9449;SDS011;4763;48.370;10.874;2023-07-08T00:26:29;9.63;;;4.40;;
9449;SDS011;4763;48.370;10.874;2023-07-08T00:28:57;10.53;;;5.23;;
9449;SDS011;4763;48.370;10.874;2023-07-08T00:31:25;8.83;;;4.37;;
9449;SDS011;4763;48.370;10.874;2023-07-08T00:33:53;7.30;;;4.53;;
9449;SDS011;4763;48.370;10.874;2023-07-08T00:36:22;8.40;;;4.53;;
9449;SDS011;4763;48.370;10.874;2023-07-08T00:38:50;7.63;;;5.03;;
9449;SDS011;4763;48.370;10.874;2023-07-08T00:41:18;6.97;;;4.87;;
9449;SDS011;4763;48.370;10.874;2023-07-08T00:43:49;10.57;;;4.47;;
9449;SDS011;4763;48.370;10.874;2023-07-08T00:46:18;6.67;;;4.27;;
9449;SDS011;4763;48.370;10.874;2023-07-08T00:48:59;7.93;;;4.50;;
9449;SDS011;4763;48.370;10.874;2023-07-08T00:51:30;6.40;;;4.40;;
9449;SDS011;4763;48.370;10.874;2023-07-08T00:53:56;7.20;;;5.07;;
9449;SDS011;4763;48.370;10.874;2023-07-08T00:56:23;9.27;;;5.17;;
9449;SDS011;4763;48.370;10.874;2023-07-08T00:58:54;6.03;;;4.57;;
9449;SDS011;4763;48.370;10.874;2023-07-08T01:01:23;6.80;;;4.40;;
9449;SDS011;4763;48.370;10.874;2023-07-08T01:03:54;7.70;;;4.97;;
9449;SDS011;4763;48.370;10.874;2023-07-08T01:06:26;6.70;;;5.07;;
9449;SDS011;4763;48.370;10.874;2023-07-08T01:08:56;9.57;;;5.13;;
9449;SDS011;4763;48.370;10.874;2023-07-08T01:11:24;8.37;;;5.30;;
9449;SDS011;4763;48.370;10.874;2023-07-08T01:13:50;7.00;;;4.37;;
9449;SDS011;4763;48.370;10.874;2023-07-08T01:16:18;8.23;;;5.00;;
9449;SDS011;4763;48.370;10.874;2023-07-08T01:18:46;9.30;;;5.10;;
9449;SDS011;4763;48.370;10.874;2023-07-08T01:21:29;6.50;;;5.17;;
9449;SDS011;4763;48.370;10.874;2023-07-08T01:24:01;8.00;;;4.93;;
9449;SDS011;4763;48.370;10.874;2023-07-08T01:26:30;9.37;;;4.23;;
9449;SDS011;4763;48.370;10.874;2023-07-08T01:28:59;7.17;;;4.60;;
9449;SDS011;4763;48.370;10.874;2023-07-08T01:31:27;8.57;;;5.07;;
9449;SDS011;4763;48.370;10.874;2023-07-08T01:33:54;7.87;;;5.10;;
9449;SDS011;4763;48.370;10.874;2023-07-08T01:36:21;10.10;;;5.10;;
9449;SDS011;4763;48.370;10.874;2023-07-08T01:38:48;8.73;;;5.83;;
9449;SDS011;4763;48.370;10.874;2023-07-08T01:41:16;11.40;;;6.13;;
9449;SDS011;4763;48.370;10.874;2023-07-08T01:43:43;6.80;;;4.60;;
9449;SDS011;4763;48.370;10.874;2023-07-08T01:46:11;12.50;;;5.13;;
9449;SDS011;4763;48.370;10.874;2023-07-08T01:48:44;8.83;;;5.27;;
9449;SDS011;4763;48.370;10.874;2023-07-08T01:51:14;8.13;;;5.10;;
9449;SDS011;4763;48.370;10.874;2023-07-08T01:53:41;8.87;;;5.70;;
9449;SDS011;4763;48.370;10.874;2023-07-08T01:56:09;8.27;;;5.23;;
9449;SDS011;4763;48.370;10.874;2023-07-08T01:58:39;7.57;;;5.20;;
9449;SDS011;4763;48.370;10.874;2023-07-08T02:01:06;7.40;;;5.23;;
9449;SDS011;4763;48.370;10.874;2023-07-08T02:03:34;7.07;;;5.03;;
9449;SDS011;4763;48.370;10.874;2023-07-08T02:06:01;7.63;;;5.03;;
9449;SDS011;4763;48.370;10.874;2023-07-08T02:08:29;12.60;;;5.47;;
9449;SDS011;4763;48.370;10.874;2023-07-08T02:10:56;11.40;;;5.20;;
9449;SDS011;4763;48.370;10.874;2023-07-08T02:13:24;10.13;;;4.87;;
9449;SDS011;4763;48.370;10.874;2023-07-08T02:15:53;8.23;;;5.20;;
9449;SDS011;4763;48.370;10.874;2023-07-08T02:18:20;7.83;;;5.57;;
9449;SDS011;4763;48.370;10.874;2023-07-08T02:20:48;8.37;;;4.90;;
9449;SDS011;4763;48.370;10.874;2023-07-08T02:23:15;10.40;;;5.87;;
9449;SDS011;4763;48.370;10.874;2023-07-08T02:25:49;8.20;;;5.57;;
9449;SDS011;4763;48.370;10.874;2023-07-08T02:28:16;9.23;;;5.77;;
9449;SDS011;4763;48.370;10.874;2023-07-08T02:30:43;8.10;;;5.20;;
9449;SDS011;4763;48.370;10.874;2023-07-08T02:33:12;6.97;;;4.80;;
9449;SDS011;4763;48.370;10.874;2023-07-08T02:35:39;8.67;;;5.33;;
9449;SDS011;4763;48.370;10.874;2023-07-08T02:38:06;7.50;;;4.73;;
9449;SDS011;4763;48.370;10.874;2023-07-08T02:40:33;7.53;;;4.87;;
9449;SDS011;4763;48.370;10.874;2023-07-08T02:43:00;6.97;;;5.10;;
9449;SDS011;4763;48.370;10.874;2023-07-08T02:45:26;9.50;;;4.93;;
9449;SDS011;4763;48.370;10.874;2023-07-08T02:47:54;6.80;;;4.97;;
9449;SDS011;4763;48.370;10.874;2023-07-08T02:50:22;7.63;;;4.93;;
9449;SDS011;4763;48.370;10.874;2023-07-08T02:52:50;8.13;;;5.10;;
9449;SDS011;4763;48.370;10.874;2023-07-08T02:55:16;7.07;;;4.93;;
9449;SDS011;4763;48.370;10.874;2023-07-08T02:57:43;8.87;;;5.23;;
9449;SDS011;4763;48.370;10.874;2023-07-08T03:00:10;6.57;;;4.90;;
9449;SDS011;4763;48.370;10.874;2023-07-08T03:02:38;7.57;;;5.27;;
9449;SDS011;4763;48.370;10.874;2023-07-08T03:05:05;8.40;;;4.90;;
9449;SDS011;4763;48.370;10.874;2023-07-08T03:07:34;7.63;;;5.60;;
9449;SDS011;4763;48.370;10.874;2023-07-08T03:10:00;10.37;;;4.90;;
9449;SDS011;4763;48.370;10.874;2023-07-08T03:12:28;7.30;;;5.60;;
9449;SDS011;4763;48.370;10.874;2023-07-08T03:14:54;8.00;;;5.33;;
9449;SDS011;4763;48.370;10.874;2023-07-08T03:17:21;9.20;;;5.30;;
9449;SDS011;4763;48.370;10.874;2023-07-08T03:19:48;8.00;;;5.23;;
9449;SDS011;4763;48.370;10.874;2023-07-08T03:22:15;7.07;;;4.83;;
9449;SDS011;4763;48.370;10.874;2023-07-08T03:24:43;9.30;;;5.50;;
9449;SDS011;4763;48.370;10.874;2023-07-08T03:27:11;8.00;;;4.70;;
9449;SDS011;4763;48.370;10.874;2023-07-08T03:29:39;7.43;;;5.00;;
9449;SDS011;4763;48.370;10.874;2023-07-08T03:32:07;10.13;;;4.90;;
9449;SDS011;4763;48.370;10.874;2023-07-08T03:34:36;7.57;;;4.90;;
9449;SDS011;4763;48.370;10.874;2023-07-08T03:37:02;6.07;;;4.23;;
9449;SDS011;4763;48.370;10.874;2023-07-08T03:39:30;11.37;;;5.30;;
9449;SDS011;4763;48.370;10.874;2023-07-08T03:41:58;6.00;;;4.50;;
9449;SDS011;4763;48.370;10.874;2023-07-08T03:44:25;7.57;;;4.63;;
9449;SDS011;4763;48.370;10.874;2023-07-08T03:46:52;7.53;;;5.07;;
9449;SDS011;4763;48.370;10.874;2023-07-08T03:49:19;6.20;;;4.73;;
9449;SDS011;4763;48.370;10.874;2023-07-08T03:51:49;7.17;;;4.90;;
9449;SDS011;4763;48.370;10.874;2023-07-08T03:54:17;7.87;;;4.93;;
9449;SDS011;4763;48.370;10.874;2023-07-08T03:56:46;8.13;;;5.43;;
9449;SDS011;4763;48.370;10.874;2023-07-08T03:59:14;8.83;;;4.53;;
9449;SDS011;4763;48.370;10.874;2023-07-08T04:01:41;8.63;;;5.13;;
9449;SDS011;4763;48.370;10.874;2023-07-08T04:04:08;7.57;;;4.70;;
9449;SDS011;4763;48.370;10.874;2023-07-08T04:06:38;5.57;;;4.17;;
9449;SDS011;4763;48.370;10.874;2023-07-08T04:09:04;6.77;;;4.53;;
9449;SDS011;4763;48.370;10.874;2023-07-08T04:11:31;7.33;;;4.50;;
9449;SDS011;4763;48.370;10.874;2023-07-08T04:13:59;6.87;;;4.07;;
9449;SDS011;4763;48.370;10.874;2023-07-08T04:16:28;6.33;;;4.27;;
9449;SDS011;4763;48.370;10.874;2023-07-08T04:18:57;7.40;;;4.43;;
9449;SDS011;4763;48.370;10.874;2023-07-08T04:21:24;5.60;;;4.03;;
9449;SDS011;4763;48.370;10.874;2023-07-08T04:23:51;7.83;;;4.27;;
9449;SDS011;4763;48.370;10.874;2023-07-08T04:26:18;5.70;;;4.23;;
9449;SDS011;4763;48.370;10.874;2023-07-08T04:28:45;8.13;;;4.93;;
9449;SDS011;4763;48.370;10.874;2023-07-08T04:31:12;7.07;;;3.80;;
9449;SDS011;4763;48.370;10.874;2023-07-08T04:33:40;7.57;;;4.60;;
9449;SDS011;4763;48.370;10.874;2023-07-08T04:36:09;5.93;;;3.87;;
9449;SDS011;4763;48.370;10.874;2023-07-08T04:38:38;5.43;;;4.07;;
9449;SDS011;4763;48.370;10.874;2023-07-08T04:41:06;6.77;;;4.37;;
9449;SDS011;4763;48.370;10.874;2023-07-08T04:43:33;10.27;;;4.50;;
9449;SDS011;4763;48.370;10.874;2023-07-08T04:46:00;5.97;;;3.97;;
9449;SDS011;4763;48.370;10.874;2023-07-08T04:48:27;7.50;;;4.20;;
9449;SDS011;4763;48.370;10.874;2023-07-08T04:50:55;6.43;;;4.13;;
9449;SDS011;4763;48.370;10.874;2023-07-08T04:53:22;7.50;;;4.83;;
9449;SDS011;4763;48.370;10.874;2023-07-08T04:55:51;6.20;;;3.93;;
9449;SDS011;4763;48.370;10.874;2023-07-08T04:58:21;6.17;;;4.10;;
9449;SDS011;4763;48.370;10.874;2023-07-08T05:00:48;7.77;;;4.17;;
9449;SDS011;4763;48.370;10.874;2023-07-08T05:03:15;6.90;;;4.13;;
9449;SDS011;4763;48.370;10.874;2023-07-08T05:05:41;7.90;;;4.27;;
9449;SDS011;4763;48.370;10.874;2023-07-08T05:08:09;6.70;;;4.20;;
9449;SDS011;4763;48.370;10.874;2023-07-08T05:10:38;6.90;;;3.90;;
9449;SDS011;4763;48.370;10.874;2023-07-08T05:13:05;5.90;;;4.03;;
9449;SDS011;4763;48.370;10.874;2023-07-08T05:15:32;5.70;;;3.73;;
9449;SDS011;4763;48.370;10.874;2023-07-08T05:17:58;9.30;;;4.40;;
9449;SDS011;4763;48.370;10.874;2023-07-08T05:20:25;5.87;;;4.13;;
9449;SDS011;4763;48.370;10.874;2023-07-08T05:22:52;7.60;;;4.77;;
9449;SDS011;4763;48.370;10.874;2023-07-08T05:25:20;8.07;;;4.50;;
9449;SDS011;4763;48.370;10.874;2023-07-08T05:27:46;8.67;;;5.00;;
9449;SDS011;4763;48.370;10.874;2023-07-08T05:30:15;8.50;;;4.73;;
9449;SDS011;4763;48.370;10.874;2023-07-08T05:32:42;6.20;;;4.37;;
9449;SDS011;4763;48.370;10.874;2023-07-08T05:35:10;5.93;;;4.40;;
9449;SDS011;4763;48.370;10.874;2023-07-08T05:37:37;6.63;;;4.47;;
9449;SDS011;4763;48.370;10.874;2023-07-08T05:40:05;7.53;;;4.97;;
9449;SDS011;4763;48.370;10.874;2023-07-08T05:42:34;8.03;;;5.00;;
9449;SDS011;4763;48.370;10.874;2023-07-08T05:45:01;8.30;;;4.67;;
9449;SDS011;4763;48.370;10.874;2023-07-08T05:47:28;9.03;;;4.50;;
9449;SDS011;4763;48.370;10.874;2023-07-08T05:49:54;6.20;;;4.30;;
9449;SDS011;4763;48.370;10.874;2023-07-08T05:52:21;6.43;;;4.23;;
9449;SDS011;4763;48.370;10.874;2023-07-08T05:54:48;7.13;;;4.70;;
9449;SDS011;4763;48.370;10.874;2023-07-08T05:57:14;9.50;;;4.63;;
9449;SDS011;4763;48.370;10.874;2023-07-08T05:59:42;6.07;;;3.97;;
9449;SDS011;4763;48.370;10.874;2023-07-08T06:02:10;6.80;;;4.47;;
9449;SDS011;4763;48.370;10.874;2023-07-08T06:04:38;9.40;;;4.45;;
9449;SDS011;4763;48.370;10.874;2023-07-08T06:07:05;6.35;;;4.35;;
9449;SDS011;4763;48.370;10.874;2023-07-08T06:09:31;9.43;;;4.22;;
9449;SDS011;4763;48.370;10.874;2023-07-08T06:11:59;6.72;;;4.45;;
9449;SDS011;4763;48.370;10.874;2023-07-08T06:14:26;6.25;;;4.53;;
9449;SDS011;4763;48.370;10.874;2023-07-08T06:16:55;9.65;;;5.32;;
9449;SDS011;4763;48.370;10.874;2023-07-08T06:19:23;7.20;;;4.28;;
9449;SDS011;4763;48.370;10.874;2023-07-08T06:21:50;6.65;;;4.20;;
9449;SDS011;4763;48.370;10.874;2023-07-08T06:24:17;7.18;;;4.05;;
9449;SDS011;4763;48.370;10.874;2023-07-08T06:26:43;6.28;;;4.82;;
9449;SDS011;4763;48.370;10.874;2023-07-08T06:29:10;6.13;;;4.55;;
9449;SDS011;4763;48.370;10.874;2023-07-08T06:31:37;7.28;;;4.43;;
9449;SDS011;4763;48.370;10.874;2023-07-08T06:34:05;6.75;;;4.35;;
9449;SDS011;4763;48.370;10.874;2023-07-08T06:36:32;9.43;;;4.40;;
9449;SDS011;4763;48.370;10.874;2023-07-08T06:38:59;8.02;;;5.20;;
9449;SDS011;4763;48.370;10.874;2023-07-08T06:41:25;6.15;;;4.22;;
9449;SDS011;4763;48.370;10.874;2023-07-08T06:43:52;7.32;;;3.90;;
9449;SDS011;4763;48.370;10.874;2023-07-08T06:46:19;6.53;;;3.80;;
9449;SDS011;4763;48.370;10.874;2023-07-08T06:48:46;6.88;;;4.38;;
9449;SDS011;4763;48.370;10.874;2023-07-08T06:51:14;8.70;;;4.45;;
9449;SDS011;4763;48.370;10.874;2023-07-08T06:53:41;6.70;;;4.10;;
9449;SDS011;4763;48.370;10.874;2023-07-08T06:56:07;5.60;;;4.35;;
9449;SDS011;4763;48.370;10.874;2023-07-08T06:58:34;7.05;;;3.83;;
9449;SDS011;4763;48.370;10.874;2023-07-08T07:01:01;18.42;;;5.35;;
9449;SDS011;4763;48.370;10.874;2023-07-08T07:03:28;7.53;;;4.20;;
9449;SDS011;4763;48.370;10.874;2023-07-08T07:05:54;6.38;;;4.30;;
9449;SDS011;4763;48.370;10.874;2023-07-08T07:08:23;7.03;;;4.50;;
9449;SDS011;4763;48.370;10.874;2023-07-08T07:10:49;9.23;;;4.70;;
9449;SDS011;4763;48.370;10.874;2023-07-08T07:13:16;6.40;;;4.32;;
9449;SDS011;4763;48.370;10.874;2023-07-08T07:15:43;5.28;;;4.28;;
9449;SDS011;4763;48.370;10.874;2023-07-08T07:18:10;8.43;;;4.60;;
9449;SDS011;4763;48.370;10.874;2023-07-08T07:20:37;6.57;;;4.50;;
9449;SDS011;4763;48.370;10.874;2023-07-08T07:23:04;11.18;;;5.50;;
9449;SDS011;4763;48.370;10.874;2023-07-08T07:25:32;7.63;;;4.97;;
9449;SDS011;4763;48.370;10.874;2023-07-08T07:27:59;7.22;;;5.25;;
9449;SDS011;4763;48.370;10.874;2023-07-08T07:30:26;8.18;;;5.65;;
9449;SDS011;4763;48.370;10.874;2023-07-08T07:32:52;7.57;;;5.28;;
9449;SDS011;4763;48.370;10.874;2023-07-08T07:35:19;14.18;;;5.97;;
9449;SDS011;4763;48.370;10.874;2023-07-08T07:37:48;17.40;;;5.55;;
9449;SDS011;4763;48.370;10.874;2023-07-08T07:40:14;9.52;;;6.30;;
9449;SDS011;4763;48.370;10.874;2023-07-08T07:42:43;8.57;;;5.57;;
9449;SDS011;4763;48.370;10.874;2023-07-08T07:45:11;7.57;;;5.13;;
9449;SDS011;4763;48.370;10.874;2023-07-08T07:47:39;9.05;;;5.15;;
9449;SDS011;4763;48.370;10.874;2023-07-08T07:50:06;8.75;;;5.28;;
9449;SDS011;4763;48.370;10.874;2023-07-08T07:52:35;8.10;;;5.60;;
9449;SDS011;4763;48.370;10.874;2023-07-08T07:55:02;9.40;;;4.90;;
9449;SDS011;4763;48.370;10.874;2023-07-08T07:57:29;7.45;;;5.18;;
9449;SDS011;4763;48.370;10.874;2023-07-08T07:59:57;7.28;;;5.13;;
9449;SDS011;4763;48.370;10.874;2023-07-08T08:02:24;8.00;;;5.00;;
9449;SDS011;4763;48.370;10.874;2023-07-08T08:04:51;9.10;;;5.82;;
9449;SDS011;4763;48.370;10.874;2023-07-08T08:07:17;9.32;;;5.53;;
9449;SDS011;4763;48.370;10.874;2023-07-08T08:09:44;7.90;;;5.55;;
9449;SDS011;4763;48.370;10.874;2023-07-08T08:12:11;8.80;;;5.10;;
9449;SDS011;4763;48.370;10.874;2023-07-08T08:14:38;8.27;;;5.35;;
9449;SDS011;4763;48.370;10.874;2023-07-08T08:17:06;8.52;;;5.32;;
9449;SDS011;4763;48.370;10.874;2023-07-08T08:19:33;9.13;;;5.07;;
9449;SDS011;4763;48.370;10.874;2023-07-08T08:22:00;9.30;;;5.28;;
9449;SDS011;4763;48.370;10.874;2023-07-08T08:24:26;8.63;;;5.20;;
9449;SDS011;4763;48.370;10.874;2023-07-08T08:26:53;7.75;;;5.10;;
9449;SDS011;4763;48.370;10.874;2023-07-08T08:29:20;7.68;;;5.35;;
9449;SDS011;4763;48.370;10.874;2023-07-08T08:31:47;6.65;;;4.30;;
9449;SDS011;4763;48.370;10.874;2023-07-08T08:34:17;7.38;;;5.30;;
9449;SDS011;4763;48.370;10.874;2023-07-08T08:36:44;8.05;;;5.82;;
9449;SDS011;4763;48.370;10.874;2023-07-08T08:39:11;11.93;;;5.75;;
9449;SDS011;4763;48.370;10.874;2023-07-08T08:41:38;9.38;;;5.35;;
9449;SDS011;4763;48.370;10.874;2023-07-08T08:44:10;7.18;;;5.03;;
9449;SDS011;4763;48.370;10.874;2023-07-08T08:46:44;8.82;;;4.38;;
9449;SDS011;4763;48.370;10.874;2023-07-08T08:49:22;9.98;;;4.93;;
9449;SDS011;4763;48.370;10.874;2023-07-08T08:51:53;7.80;;;4.82;;
9449;SDS011;4763;48.370;10.874;2023-07-08T08:54:20;8.10;;;4.85;;
9449;SDS011;4763;48.370;10.874;2023-07-08T08:56:50;6.95;;;4.97;;
9449;SDS011;4763;48.370;10.874;2023-07-08T08:59:26;8.80;;;5.38;;
9449;SDS011;4763;48.370;10.874;2023-07-08T09:02:00;6.30;;;5.10;;
9449;SDS011;4763;48.370;10.874;2023-07-08T09:04:36;14.88;;;4.95;;
9449;SDS011;4763;48.370;10.874;2023-07-08T09:07:05;9.43;;;5.85;;
9449;SDS011;4763;48.370;10.874;2023-07-08T09:09:38;6.78;;;4.53;;
9449;SDS011;4763;48.370;10.874;2023-07-08T09:12:13;7.35;;;5.38;;
9449;SDS011;4763;48.370;10.874;2023-07-08T09:14:43;10.48;;;5.07;;
9449;SDS011;4763;48.370;10.874;2023-07-08T09:17:14;7.03;;;4.93;;
9449;SDS011;4763;48.370;10.874;2023-07-08T09:19:47;6.65;;;4.38;;
9449;SDS011;4763;48.370;10.874;2023-07-08T09:22:19;8.13;;;4.70;;
9449;SDS011;4763;48.370;10.874;2023-07-08T09:24:50;10.90;;;4.70;;
9449;SDS011;4763;48.370;10.874;2023-07-08T09:27:20;8.68;;;5.05;;
9449;SDS011;4763;48.370;10.874;2023-07-08T09:29:46;5.07;;;4.22;;
9449;SDS011;4763;48.370;10.874;2023-07-08T09:32:14;8.50;;;5.28;;
9449;SDS011;4763;48.370;10.874;2023-07-08T09:34:43;7.13;;;4.55;;
9449;SDS011;4763;48.370;10.874;2023-07-08T09:37:22;7.55;;;4.60;;
9449;SDS011;4763;48.370;10.874;2023-07-08T09:39:51;15.75;;;5.38;;
9449;SDS011;4763;48.370;10.874;2023-07-08T09:42:18;7.90;;;4.50;;
9449;SDS011;4763;48.370;10.874;2023-07-08T09:44:47;13.15;;;4.60;;
9449;SDS011;4763;48.370;10.874;2023-07-08T09:47:20;7.63;;;4.50;;
9449;SDS011;4763;48.370;10.874;2023-07-08T09:49:48;6.80;;;4.13;;
9449;SDS011;4763;48.370;10.874;2023-07-08T09:52:15;7.18;;;4.75;;
9449;SDS011;4763;48.370;10.874;2023-07-08T09:54:44;9.93;;;4.20;;
9449;SDS011;4763;48.370;10.874;2023-07-08T09:57:12;5.53;;;4.00;;
9449;SDS011;4763;48.370;10.874;2023-07-08T09:59:54;11.05;;;5.47;;
9449;SDS011;4763;48.370;10.874;2023-07-08T10:02:30;7.25;;;4.72;;
9449;SDS011;4763;48.370;10.874;2023-07-08T10:05:09;6.13;;;4.72;;
9449;SDS011;4763;48.370;10.874;2023-07-08T10:07:40;8.00;;;5.47;;
9449;SDS011;4763;48.370;10.874;2023-07-08T10:10:10;9.05;;;4.63;;
9449;SDS011;4763;48.370;10.874;2023-07-08T10:12:41;8.20;;;4.57;;
9449;SDS011;4763;48.370;10.874;2023-07-08T10:15:16;5.38;;;3.88;;
9449;SDS011;4763;48.370;10.874;2023-07-08T10:17:48;7.45;;;4.80;;
9449;SDS011;4763;48.370;10.874;2023-07-08T10:20:14;6.85;;;4.97;;
9449;SDS011;4763;48.370;10.874;2023-07-08T10:22:43;6.40;;;4.00;;
9449;SDS011;4763;48.370;10.874;2023-07-08T10:25:24;6.93;;;4.60;;
9449;SDS011;4763;48.370;10.874;2023-07-08T10:27:57;8.13;;;4.05;;
9449;SDS011;4763;48.370;10.874;2023-07-08T10:30:30;6.43;;;4.30;;
9449;SDS011;4763;48.370;10.874;2023-07-08T10:33:08;7.38;;;5.20;;
9449;SDS011;4763;48.370;10.874;2023-07-08T10:35:54;7.47;;;4.18;;
9449;SDS011;4763;48.370;10.874;2023-07-08T10:38:35;9.75;;;4.47;;
9449;SDS011;4763;48.370;10.874;2023-07-08T10:41:12;6.43;;;3.83;;
9449;SDS011;4763;48.370;10.874;2023-07-08T10:43:49;8.23;;;4.68;;
9449;SDS011;4763;48.370;10.874;2023-07-08T10:46:30;5.47;;;4.13;;
9449;SDS011;4763;48.370;10.874;2023-07-08T10:49:23;7.40;;;4.13;;
9449;SDS011;4763;48.370;10.874;2023-07-08T10:54:53;5.43;;;3.90;;
9449;SDS011;4763;48.370;10.874;2023-07-08T10:57:39;7.78;;;4.55;;
9449;SDS011;4763;48.370;10.874;2023-07-08T11:00:17;10.30;;;5.20;;
9449;SDS011;4763;48.370;10.874;2023-07-08T11:02:58;6.32;;;4.45;;
9449;SDS011;4763;48.370;10.874;2023-07-08T11:05:37;8.70;;;4.75;;
9449;SDS011;4763;48.370;10.874;2023-07-08T11:08:11;6.60;;;4.10;;
9449;SDS011;4763;48.370;10.874;2023-07-08T11:10:46;6.47;;;4.15;;
9449;SDS011;4763;48.370;10.874;2023-07-08T11:13:18;5.95;;;3.90;;
9449;SDS011;4763;48.370;10.874;2023-07-08T11:15:49;6.78;;;3.47;;
9449;SDS011;4763;48.370;10.874;2023-07-08T11:18:22;9.05;;;3.92;;
9449;SDS011;4763;48.370;10.874;2023-07-08T11:21:06;6.28;;;4.38;;
9449;SDS011;4763;48.370;10.874;2023-07-08T11:23:38;7.25;;;4.00;;
9449;SDS011;4763;48.370;10.874;2023-07-08T11:26:15;8.95;;;4.10;;
9449;SDS011;4763;48.370;10.874;2023-07-08T11:28:47;6.55;;;3.95;;
9449;SDS011;4763;48.370;10.874;2023-07-08T11:31:16;6.65;;;4.03;;
9449;SDS011;4763;48.370;10.874;2023-07-08T11:33:44;5.90;;;3.63;;
9449;SDS011;4763;48.370;10.874;2023-07-08T11:36:12;4.95;;;3.97;;
9449;SDS011;4763;48.370;10.874;2023-07-08T11:38:47;5.35;;;3.90;;
9449;SDS011;4763;48.370;10.874;2023-07-08T11:41:15;5.72;;;3.67;;
9449;SDS011;4763;48.370;10.874;2023-07-08T11:43:46;5.18;;;3.75;;
9449;SDS011;4763;48.370;10.874;2023-07-08T11:46:18;7.90;;;4.55;;
9449;SDS011;4763;48.370;10.874;2023-07-08T11:48:48;5.40;;;3.88;;
9449;SDS011;4763;48.370;10.874;2023-07-08T11:51:18;7.25;;;4.82;;
9449;SDS011;4763;48.370;10.874;2023-07-08T11:53:47;5.38;;;4.13;;
9449;SDS011;4763;48.370;10.874;2023-07-08T11:56:20;5.07;;;3.53;;
9449;SDS011;4763;48.370;10.874;2023-07-08T11:58:58;9.43;;;4.55;;
9449;SDS011;4763;48.370;10.874;2023-07-08T12:01:38;5.10;;;3.38;;
9449;SDS011;4763;48.370;10.874;2023-07-08T12:04:16;4.97;;;3.55;;
9449;SDS011;4763;48.370;10.874;2023-07-08T12:06:52;6.78;;;3.63;;
9449;SDS011;4763;48.370;10.874;2023-07-08T12:09:29;7.18;;;3.63;;
9449;SDS011;4763;48.370;10.874;2023-07-08T12:12:04;6.38;;;3.55;;
9449;SDS011;4763;48.370;10.874;2023-07-08T12:14:39;4.57;;;3.00;;
9449;SDS011;4763;48.370;10.874;2023-07-08T12:17:07;6.30;;;3.33;;
9449;SDS011;4763;48.370;10.874;2023-07-08T12:19:38;4.68;;;3.20;;
9449;SDS011;4763;48.370;10.874;2023-07-08T12:22:08;6.10;;;3.50;;
9449;SDS011;4763;48.370;10.874;2023-07-08T12:24:37;5.40;;;3.80;;
9449;SDS011;4763;48.370;10.874;2023-07-08T12:27:03;5.22;;;3.53;;
9449;SDS011;4763;48.370;10.874;2023-07-08T12:29:31;4.75;;;3.17;;
9449;SDS011;4763;48.370;10.874;2023-07-08T12:31:59;6.00;;;3.30;;
9449;SDS011;4763;48.370;10.874;2023-07-08T12:34:26;4.22;;;3.03;;
9449;SDS011;4763;48.370;10.874;2023-07-08T12:36:54;5.63;;;3.65;;
9449;SDS011;4763;48.370;10.874;2023-07-08T12:39:21;7.13;;;2.95;;
9449;SDS011;4763;48.370;10.874;2023-07-08T12:41:47;9.23;;;3.22;;
9449;SDS011;4763;48.370;10.874;2023-07-08T12:44:15;6.05;;;3.13;;
9449;SDS011;4763;48.370;10.874;2023-07-08T12:46:45;11.60;;;4.65;;
9449;SDS011;4763;48.370;10.874;2023-07-08T12:49:14;4.70;;;3.50;;
9449;SDS011;4763;48.370;10.874;2023-07-08T12:51:44;4.95;;;3.95;;
9449;SDS011;4763;48.370;10.874;2023-07-08T12:54:12;3.88;;;3.03;;
9449;SDS011;4763;48.370;10.874;2023-07-08T12:56:40;10.82;;;3.22;;
9449;SDS011;4763;48.370;10.874;2023-07-08T12:59:11;4.30;;;2.88;;
9449;SDS011;4763;48.370;10.874;2023-07-08T13:01:39;4.60;;;3.53;;
9449;SDS011;4763;48.370;10.874;2023-07-08T13:04:06;6.65;;;3.20;;
9449;SDS011;4763;48.370;10.874;2023-07-08T13:06:38;6.43;;;2.78;;
9449;SDS011;4763;48.370;10.874;2023-07-08T13:09:07;5.07;;;3.42;;
9449;SDS011;4763;48.370;10.874;2023-07-08T13:11:49;6.57;;;3.17;;
9449;SDS011;4763;48.370;10.874;2023-07-08T13:14:18;3.85;;;3.10;;
9449;SDS011;4763;48.370;10.874;2023-07-08T13:16:46;3.67;;;2.90;;
9449;SDS011;4763;48.370;10.874;2023-07-08T13:19:14;5.97;;;3.33;;
9449;SDS011;4763;48.370;10.874;2023-07-08T13:21:42;3.83;;;3.35;;
9449;SDS011;4763;48.370;10.874;2023-07-08T13:24:10;6.57;;;3.58;;
9449;SDS011;4763;48.370;10.874;2023-07-08T13:26:37;3.95;;;3.15;;
9449;SDS011;4763;48.370;10.874;2023-07-08T13:29:09;4.38;;;2.83;;
9449;SDS011;4763;48.370;10.874;2023-07-08T13:31:40;3.60;;;2.85;;
9449;SDS011;4763;48.370;10.874;2023-07-08T13:34:09;6.22;;;3.30;;
9449;SDS011;4763;48.370;10.874;2023-07-08T13:36:43;4.28;;;3.00;;
9449;SDS011;4763;48.370;10.874;2023-07-08T13:39:14;10.85;;;7.25;;
9449;SDS011;4763;48.370;10.874;2023-07-08T13:41:43;5.80;;;3.70;;
9449;SDS011;4763;48.370;10.874;2023-07-08T13:44:11;9.65;;;6.70;;
9449;SDS011;4763;48.370;10.874;2023-07-08T13:46:39;8.40;;;4.63;;
9449;SDS011;4763;48.370;10.874;2023-07-08T13:49:11;5.07;;;2.80;;
9449;SDS011;4763;48.370;10.874;2023-07-08T13:51:40;5.03;;;2.78;;
9449;SDS011;4763;48.370;10.874;2023-07-08T13:54:12;3.72;;;2.50;;
9449;SDS011;4763;48.370;10.874;2023-07-08T13:56:42;4.85;;;2.83;;
9449;SDS011;4763;48.370;10.874;2023-07-08T13:59:09;5.50;;;2.60;;
9449;SDS011;4763;48.370;10.874;2023-07-08T14:01:42;5.43;;;3.03;;
9449;SDS011;4763;48.370;10.874;2023-07-08T14:04:10;5.68;;;2.72;;
9449;SDS011;4763;48.370;10.874;2023-07-08T14:06:40;3.65;;;2.55;;
9449;SDS011;4763;48.370;10.874;2023-07-08T14:09:12;3.30;;;2.33;;
9449;SDS011;4763;48.370;10.874;2023-07-08T14:11:42;4.70;;;3.00;;
9449;SDS011;4763;48.370;10.874;2023-07-08T14:14:09;3.63;;;2.55;;
9449;SDS011;4763;48.370;10.874;2023-07-08T14:16:37;4.32;;;2.00;;
9449;SDS011;4763;48.370;10.874;2023-07-08T14:19:10;2.70;;;2.03;;
9449;SDS011;4763;48.370;10.874;2023-07-08T14:21:40;3.95;;;2.70;;
9449;SDS011;4763;48.370;10.874;2023-07-08T14:24:09;4.43;;;1.95;;
9449;SDS011;4763;48.370;10.874;2023-07-08T14:26:38;3.05;;;2.60;;
9449;SDS011;4763;48.370;10.874;2023-07-08T14:29:07;5.43;;;2.58;;
9449;SDS011;4763;48.370;10.874;2023-07-08T14:31:33;4.47;;;2.63;;
9449;SDS011;4763;48.370;10.874;2023-07-08T14:34:02;3.88;;;2.45;;
9449;SDS011;4763;48.370;10.874;2023-07-08T14:36:31;5.38;;;2.17;;
9449;SDS011;4763;48.370;10.874;2023-07-08T14:38:58;3.97;;;2.70;;
9449;SDS011;4763;48.370;10.874;2023-07-08T14:41:25;3.55;;;2.20;;
9449;SDS011;4763;48.370;10.874;2023-07-08T14:43:53;3.85;;;2.15;;
9449;SDS011;4763;48.370;10.874;2023-07-08T14:46:20;2.83;;;2.33;;
9449;SDS011;4763;48.370;10.874;2023-07-08T14:48:47;4.70;;;2.70;;
9449;SDS011;4763;48.370;10.874;2023-07-08T14:51:14;3.92;;;2.10;;
9449;SDS011;4763;48.370;10.874;2023-07-08T14:53:41;5.15;;;2.40;;
9449;SDS011;4763;48.370;10.874;2023-07-08T14:56:12;5.82;;;2.65;;
9449;SDS011;4763;48.370;10.874;2023-07-08T14:58:43;5.32;;;2.42;;
9449;SDS011;4763;48.370;10.874;2023-07-08T15:01:14;2.85;;;2.42;;
9449;SDS011;4763;48.370;10.874;2023-07-08T15:03:44;4.82;;;2.65;;
9449;SDS011;4763;48.370;10.874;2023-07-08T15:06:11;4.72;;;2.45;;
9449;SDS011;4763;48.370;10.874;2023-07-08T15:08:38;5.57;;;2.30;;
9449;SDS011;4763;48.370;10.874;2023-07-08T15:11:05;6.32;;;2.38;;
9449;SDS011;4763;48.370;10.874;2023-07-08T15:13:32;2.75;;;2.22;;
9449;SDS011;4763;48.370;10.874;2023-07-08T15:16:00;5.30;;;2.55;;